createdAt,value
2022-11-20T00:01:24.890Z,98.07
2022-11-20T00:03:53.980Z,97.74
2022-11-20T00:06:22.188Z,97.62
2022-11-20T00:08:49.759Z,98.35
2022-11-20T00:11:22.820Z,98.26
2022-11-20T00:13:52.617Z,98.10
2022-11-20T00:16:22.392Z,97.28
2022-11-20T00:18:49.910Z,97.04
2022-11-20T00:21:19.642Z,97.85
2022-11-20T00:23:47.046Z,97.15
2022-11-20T00:26:16.484Z,96.40
2022-11-20T00:28:44.448Z,96.69
2022-11-20T00:31:14.822Z,97.97
2022-11-20T00:33:43.595Z,97.62
2022-11-20T00:36:13.956Z,97.31
2022-11-20T00:38:42.085Z,97.78
2022-11-20T00:41:11.214Z,96.38
2022-11-20T00:43:38.844Z,97.17
2022-11-20T00:46:13.802Z,95.70
2022-11-20T00:48:40.798Z,94.51
2022-11-20T00:51:08.496Z,95.40
2022-11-20T00:53:35.581Z,93.43
2022-11-20T00:56:05.253Z,94.20
2022-11-20T00:58:38.050Z,92.96
2022-11-20T01:01:31.141Z,93.08
2022-11-20T01:04:01.018Z,93.10
2022-11-20T01:06:36.801Z,92.99
2022-11-20T01:09:13.912Z,94.57
2022-11-20T01:11:43.315Z,94.84
2022-11-20T01:14:13.888Z,95.65
2022-11-20T01:16:43.522Z,95.73
2022-11-20T01:19:17.478Z,96.91
2022-11-20T01:21:46.566Z,98.26
2022-11-20T01:24:16.421Z,96.71
2022-11-20T01:26:45.164Z,95.61
2022-11-20T01:29:17.855Z,96.00
2022-11-20T01:31:45.669Z,95.21
2022-11-20T01:34:15.467Z,95.47
2022-11-20T01:36:43.062Z,96.04
2022-11-20T01:39:15.686Z,95.54
2022-11-20T01:42:05.727Z,95.72
2022-11-20T01:45:02.208Z,97.60
2022-11-20T01:47:45.126Z,97.97
2022-11-20T01:50:23.515Z,98.43
2022-11-20T01:53:00.851Z,98.41
2022-11-20T01:55:34.208Z,98.31
2022-11-20T01:58:03.497Z,97.51
2022-11-20T02:00:31.222Z,99.26
2022-11-20T02:03:01.667Z,99.78
2022-11-20T02:05:37.043Z,100.00
2022-11-20T02:08:06.807Z,100.00
2022-11-20T02:10:35.923Z,100.00
2022-11-20T02:13:22.176Z,100.00
2022-11-20T02:15:50.486Z,100.00
2022-11-20T02:18:19.845Z,100.00
2022-11-20T02:20:51.062Z,100.00
2022-11-20T02:23:29.370Z,100.00
2022-11-20T02:25:58.452Z,100.00
2022-11-20T02:28:25.880Z,100.00
2022-11-20T02:30:52.887Z,100.00
2022-11-20T02:33:19.903Z,98.47
2022-11-20T02:35:47.738Z,98.93
2022-11-20T02:38:16.056Z,99.24
2022-11-20T02:40:43.225Z,100.00
2022-11-20T02:43:11.173Z,99.81
2022-11-20T02:45:38.945Z,99.21
2022-11-20T02:48:08.160Z,98.57
2022-11-20T02:50:39.384Z,99.71
2022-11-20T02:53:06.853Z,100.00
2022-11-20T02:55:34.029Z,100.00
2022-11-20T02:58:01.337Z,99.50
2022-11-20T03:00:28.377Z,98.73
2022-11-20T03:02:55.364Z,100.00
2022-11-20T03:05:22.712Z,100.00
2022-11-20T03:07:50.008Z,99.70
2022-11-20T03:10:17.095Z,99.02
2022-11-20T03:12:44.403Z,99.62
2022-11-20T03:15:11.618Z,100.00
2022-11-20T03:17:38.695Z,100.00
2022-11-20T03:20:06.946Z,100.00
2022-11-20T03:22:34.034Z,100.00
2022-11-20T03:25:01.047Z,100.00
2022-11-20T03:27:28.328Z,100.00
2022-11-20T03:29:55.328Z,100.00
2022-11-20T03:32:22.326Z,100.00
2022-11-20T03:34:49.612Z,100.00
2022-11-20T03:37:16.640Z,98.00
2022-11-20T03:39:43.644Z,96.96
2022-11-20T03:42:30.980Z,98.07
2022-11-20T03:44:58.020Z,98.85
2022-11-20T03:47:25.352Z,99.37
2022-11-20T03:49:52.312Z,98.77
2022-11-20T03:52:19.364Z,98.02
2022-11-20T03:54:46.674Z,98.36
2022-11-20T03:57:13.700Z,98.56
2022-11-20T03:59:40.711Z,99.87
2022-11-20T04:02:08.100Z,100.00
2022-11-20T04:04:35.553Z,100.00
2022-11-20T04:07:03.350Z,100.00
2022-11-20T04:09:30.413Z,100.00
2022-11-20T04:11:57.693Z,100.00
2022-11-20T04:14:24.732Z,100.00
2022-11-20T04:16:51.816Z,100.00
2022-11-20T04:19:19.599Z,100.00
2022-11-20T04:21:46.816Z,100.00
2022-11-20T04:24:14.014Z,100.00
2022-11-20T04:26:41.839Z,100.00
2022-11-20T04:29:12.474Z,100.00
2022-11-20T04:31:39.492Z,100.00
2022-11-20T04:34:08.152Z,100.00
2022-11-20T04:36:35.499Z,100.00
2022-11-20T04:39:05.637Z,100.00
2022-11-20T04:41:35.683Z,100.00
2022-11-20T04:44:04.786Z,100.00
2022-11-20T04:46:41.286Z,100.00
2022-11-20T04:49:09.723Z,100.00
2022-11-20T04:51:36.788Z,100.00
2022-11-20T04:54:04.134Z,100.00
2022-11-20T04:56:31.494Z,100.00
2022-11-20T04:59:02.498Z,100.00
2022-11-20T05:01:29.732Z,100.00
2022-11-20T05:03:57.103Z,100.00
2022-11-20T05:06:24.202Z,100.00
2022-11-20T05:08:51.316Z,100.00
2022-11-20T05:11:21.216Z,100.00
2022-11-20T05:13:49.355Z,100.00
2022-11-20T05:16:21.991Z,100.00
2022-11-20T05:18:50.039Z,100.00
2022-11-20T05:21:17.725Z,100.00
2022-11-20T05:23:45.715Z,100.00
2022-11-20T05:26:16.261Z,100.00
2022-11-20T05:28:43.427Z,100.00
2022-11-20T05:31:26.600Z,100.00
2022-11-20T05:33:56.731Z,99.47
2022-11-20T05:36:23.789Z,99.03
2022-11-20T05:38:51.524Z,99.79
2022-11-20T05:41:21.460Z,100.00
2022-11-20T05:43:50.000Z,100.00
2022-11-20T05:46:22.306Z,99.85
2022-11-20T05:48:52.354Z,100.00
2022-11-20T05:51:20.786Z,99.60
2022-11-20T05:53:48.795Z,98.85
2022-11-20T05:56:19.090Z,100.00
2022-11-20T05:58:46.663Z,98.88
2022-11-20T06:01:25.039Z,99.00
2022-11-20T06:03:53.792Z,98.50
2022-11-20T06:06:21.436Z,100.00
2022-11-20T06:08:49.400Z,99.43
2022-11-20T06:11:17.503Z,98.89
2022-11-20T06:13:45.303Z,100.00
2022-11-20T06:16:14.591Z,99.23
2022-11-20T06:18:41.922Z,99.44
2022-11-20T06:21:11.828Z,98.48
2022-11-20T06:23:39.423Z,99.51
2022-11-20T06:26:12.371Z,100.00
2022-11-20T06:28:42.337Z,99.53
2022-11-20T06:31:12.966Z,100.00
2022-11-20T06:33:40.333Z,99.44
2022-11-20T06:36:10.809Z,98.19
2022-11-20T06:38:39.894Z,98.42
2022-11-20T06:41:08.399Z,97.06
2022-11-20T06:43:35.383Z,96.18
2022-11-20T06:46:02.957Z,99.74
2022-11-20T06:48:30.398Z,97.23
2022-11-20T06:50:57.724Z,95.84
2022-11-20T06:53:25.649Z,96.25
2022-11-20T06:55:53.597Z,97.30
2022-11-20T06:58:20.647Z,97.86
2022-11-20T07:00:48.004Z,96.73
2022-11-20T07:03:15.028Z,96.36
2022-11-20T07:05:42.126Z,95.74
2022-11-20T07:08:09.937Z,94.73
2022-11-20T07:10:37.156Z,95.53
2022-11-20T07:13:04.430Z,96.00
2022-11-20T07:15:31.779Z,96.39
2022-11-20T07:18:02.208Z,97.57
2022-11-20T07:20:29.474Z,98.24
2022-11-20T07:22:58.224Z,99.94
2022-11-20T07:25:26.881Z,100.00
2022-11-20T07:27:54.088Z,100.00
2022-11-20T07:30:21.790Z,100.00
2022-11-20T07:32:51.878Z,100.00
2022-11-20T07:35:19.188Z,100.00
2022-11-20T07:37:46.796Z,100.00
2022-11-20T07:40:14.728Z,100.00
2022-11-20T07:42:52.997Z,100.00
2022-11-20T07:45:22.147Z,100.00
2022-11-20T07:47:49.146Z,100.00
2022-11-20T07:50:17.055Z,100.00
2022-11-20T07:52:44.686Z,100.00
2022-11-20T07:55:12.113Z,100.00
2022-11-20T07:57:39.144Z,100.00
2022-11-20T08:00:10.052Z,100.00
2022-11-20T08:02:42.821Z,98.91
2022-11-20T08:05:10.802Z,99.25
2022-11-20T08:07:39.817Z,97.35
2022-11-20T08:10:08.864Z,98.96
2022-11-20T08:12:54.640Z,98.81
2022-11-20T08:15:22.001Z,100.00
2022-11-20T08:18:15.568Z,99.98
2022-11-20T08:20:36.498Z,99.53
2022-11-20T08:23:08.935Z,100.00
2022-11-20T08:25:39.428Z,100.00
2022-11-20T08:28:19.950Z,100.00
2022-11-20T08:30:47.711Z,100.00
2022-11-20T08:33:15.093Z,100.00
2022-11-20T08:35:42.735Z,99.37
2022-11-20T08:38:10.661Z,100.00
2022-11-20T08:40:37.974Z,100.00
2022-11-20T08:43:05.364Z,100.00
2022-11-20T08:45:34.738Z,100.00
2022-11-20T08:48:04.065Z,100.00
2022-11-20T08:50:33.178Z,100.00
2022-11-20T08:53:06.889Z,100.00
2022-11-20T08:55:36.622Z,99.81
2022-11-20T08:58:12.802Z,99.32
2022-11-20T09:00:40.132Z,100.00
2022-11-20T09:03:07.615Z,99.53
2022-11-20T09:05:34.620Z,100.00
2022-11-20T09:08:01.905Z,100.00
2022-11-20T09:10:29.136Z,98.86
2022-11-20T09:12:59.223Z,98.43
2022-11-20T09:15:27.231Z,96.43
2022-11-20T09:18:02.187Z,97.84
2022-11-20T09:20:31.006Z,97.52
2022-11-20T09:22:58.745Z,97.50
2022-11-20T09:25:25.971Z,98.41
2022-11-20T09:27:57.555Z,99.52
2022-11-20T09:30:25.019Z,99.85
2022-11-20T09:32:52.306Z,99.98
2022-11-20T09:35:19.893Z,100.00
2022-11-20T09:37:47.162Z,100.00
2022-11-20T09:40:24.847Z,100.00
2022-11-20T09:43:16.730Z,97.94
2022-11-20T09:45:51.594Z,97.09
2022-11-20T09:48:49.257Z,95.85
2022-11-20T09:51:31.604Z,91.93
2022-11-20T09:54:09.575Z,93.01
2022-11-20T09:56:41.841Z,93.86
2022-11-20T09:59:40.660Z,92.48
2022-11-20T10:02:18.381Z,91.34
2022-11-20T10:04:52.995Z,92.00
2022-11-20T10:07:33.460Z,89.52
2022-11-20T10:10:01.883Z,90.11
2022-11-20T10:12:46.499Z,90.73
2022-11-20T10:15:41.032Z,91.90
2022-11-20T10:18:29.588Z,91.20
2022-11-20T10:21:07.108Z,88.68
2022-11-20T10:23:37.062Z,89.81
2022-11-20T10:26:17.497Z,88.87
2022-11-20T10:29:28.713Z,87.58
2022-11-20T10:32:03.367Z,86.51
2022-11-20T10:34:43.412Z,86.89
2022-11-20T10:37:24.457Z,86.73
2022-11-20T10:40:10.037Z,87.54
2022-11-20T10:42:44.789Z,87.34
2022-11-20T10:45:45.347Z,88.03
2022-11-20T10:48:24.886Z,85.48
2022-11-20T10:51:13.386Z,87.91
2022-11-20T10:53:52.086Z,88.39
2022-11-20T10:56:48.373Z,88.60
2022-11-20T10:59:36.653Z,88.07
2022-11-20T11:02:16.849Z,87.72
2022-11-20T11:04:47.598Z,87.35
2022-11-20T11:07:23.482Z,87.40
2022-11-20T11:09:55.812Z,88.54
2022-11-20T11:12:28.546Z,86.58
2022-11-20T11:14:58.765Z,87.16
2022-11-20T11:17:34.969Z,87.33
2022-11-20T11:20:02.563Z,88.91
2022-11-20T11:22:34.960Z,88.34
2022-11-20T11:25:02.824Z,87.44
2022-11-20T11:27:29.880Z,87.08
2022-11-20T11:30:14.703Z,86.29
2022-11-20T11:32:42.624Z,87.16
2022-11-20T11:35:51.802Z,87.23
2022-11-20T11:38:40.890Z,87.00
2022-11-20T11:41:21.146Z,87.84
2022-11-20T11:44:13.843Z,87.95
2022-11-20T11:46:50.490Z,88.20
2022-11-20T11:49:19.637Z,89.73
2022-11-20T11:51:59.011Z,88.40
2022-11-20T11:54:42.289Z,89.35
2022-11-20T11:57:53.714Z,88.49
2022-11-20T12:00:23.123Z,88.27
2022-11-20T12:03:05.357Z,90.25
2022-11-20T12:05:41.202Z,90.03
2022-11-20T12:08:45.959Z,89.08
2022-11-20T12:11:31.740Z,88.67
2022-11-20T12:14:20.749Z,87.84
2022-11-20T12:16:47.844Z,88.36
2022-11-20T12:19:15.708Z,88.70
2022-11-20T12:22:03.366Z,88.01
2022-11-20T12:24:47.322Z,88.96
2022-11-20T12:27:20.158Z,89.80
2022-11-20T12:30:09.269Z,89.34
2022-11-20T12:33:07.018Z,90.37
2022-11-20T12:35:37.028Z,90.92
2022-11-20T12:38:22.699Z,90.32
2022-11-20T12:41:50.658Z,90.95
2022-11-20T12:44:56.217Z,89.94
2022-11-20T12:47:45.968Z,91.58
2022-11-20T12:50:42.933Z,89.47
2022-11-20T12:53:58.106Z,90.13
2022-11-20T12:56:51.139Z,89.46
2022-11-20T13:00:00.200Z,90.49
2022-11-20T13:03:08.070Z,91.80
2022-11-20T13:05:35.290Z,92.28
2022-11-20T13:08:03.316Z,90.75
2022-11-20T13:11:08.544Z,91.88
2022-11-20T13:13:55.561Z,91.53
2022-11-20T13:16:55.990Z,90.77
2022-11-20T13:19:23.793Z,91.39
2022-11-20T13:21:51.680Z,90.70
2022-11-20T13:24:25.229Z,90.74
2022-11-20T13:27:13.875Z,90.41
2022-11-20T13:29:46.489Z,90.35
2022-11-20T13:32:18.473Z,91.52
2022-11-20T13:34:57.082Z,91.27
2022-11-20T13:37:38.586Z,92.87
2022-11-20T13:40:08.605Z,93.51
2022-11-20T13:43:08.205Z,94.12
2022-11-20T13:45:35.212Z,94.03
2022-11-20T13:48:20.042Z,95.33
2022-11-20T13:51:07.955Z,95.00
2022-11-20T13:53:47.240Z,94.95
2022-11-20T13:56:44.757Z,94.73
2022-11-20T13:59:40.907Z,94.82
2022-11-20T14:02:16.124Z,95.70
2022-11-20T14:04:49.851Z,96.70
2022-11-20T14:07:19.314Z,95.00
2022-11-20T14:09:56.104Z,94.61
2022-11-20T14:12:32.628Z,96.82
2022-11-20T14:15:00.616Z,95.57
2022-11-20T14:17:35.876Z,95.39
2022-11-20T14:20:07.444Z,95.57
2022-11-20T14:22:34.466Z,95.85
2022-11-20T14:25:20.225Z,96.87
2022-11-20T14:27:59.677Z,96.71
2022-11-20T14:30:30.157Z,97.02
2022-11-20T14:33:03.318Z,96.43
2022-11-20T14:35:35.244Z,96.13
2022-11-20T14:38:03.960Z,96.21
2022-11-20T14:40:36.836Z,96.74
2022-11-20T14:43:27.501Z,96.69
2022-11-20T14:46:03.743Z,96.10
2022-11-20T14:48:35.211Z,96.82
2022-11-20T14:51:02.355Z,98.22
2022-11-20T14:53:29.323Z,98.43
2022-11-20T14:56:01.686Z,97.53
2022-11-20T14:58:34.424Z,97.93
2022-11-20T15:01:05.750Z,98.11
2022-11-20T15:03:41.049Z,98.54
2022-11-20T15:06:12.293Z,98.91
2022-11-20T15:08:39.422Z,98.49
2022-11-20T15:11:23.911Z,97.85
2022-11-20T15:13:51.495Z,99.58
2022-11-20T15:16:24.197Z,100.00
2022-11-20T15:18:52.213Z,100.00
2022-11-20T15:21:23.996Z,100.00
2022-11-20T15:23:51.565Z,100.00
2022-11-20T15:26:28.979Z,100.00
2022-11-20T15:28:56.323Z,100.00
2022-11-20T15:31:24.851Z,100.00
2022-11-20T15:33:52.211Z,100.00
2022-11-20T15:36:19.625Z,100.00
2022-11-20T15:38:46.659Z,100.00
2022-11-20T15:41:13.739Z,100.00
2022-11-20T15:43:41.048Z,100.00
2022-11-20T15:46:13.964Z,100.00
2022-11-20T15:48:48.201Z,100.00
2022-11-20T15:51:25.789Z,100.00
2022-11-20T15:53:53.088Z,100.00
2022-11-20T15:56:20.124Z,100.00
2022-11-20T15:58:47.144Z,100.00
2022-11-20T16:01:20.381Z,100.00
2022-11-20T16:03:52.628Z,100.00
2022-11-20T16:06:19.937Z,100.00
2022-11-20T16:08:47.318Z,100.00
2022-11-20T16:11:16.904Z,100.00
2022-11-20T16:14:03.139Z,100.00
2022-11-20T16:16:33.701Z,100.00
2022-11-20T16:19:01.253Z,100.00
2022-11-20T16:21:31.964Z,100.00
2022-11-20T16:24:04.928Z,100.00
2022-11-20T16:26:32.677Z,100.00
2022-11-20T16:29:01.270Z,100.00
2022-11-20T16:31:28.635Z,100.00
2022-11-20T16:33:57.956Z,100.00
2022-11-20T16:36:28.427Z,100.00
2022-11-20T16:38:57.262Z,100.00
2022-11-20T16:41:26.813Z,100.00
2022-11-20T16:43:58.112Z,100.00
2022-11-20T16:46:27.395Z,100.00
2022-11-20T16:49:05.886Z,100.00
2022-11-20T16:51:36.101Z,100.00
2022-11-20T16:54:08.792Z,100.00
2022-11-20T16:56:36.295Z,100.00
2022-11-20T16:59:04.247Z,100.00
2022-11-20T17:01:32.775Z,100.00
2022-11-20T17:04:07.272Z,100.00
2022-11-20T17:06:37.184Z,100.00
2022-11-20T17:09:04.876Z,100.00
2022-11-20T17:11:33.497Z,100.00
2022-11-20T17:14:02.314Z,100.00
2022-11-20T17:16:29.932Z,100.00
2022-11-20T17:19:02.892Z,100.00
2022-11-20T17:21:36.316Z,100.00
2022-11-20T17:24:05.773Z,100.00
2022-11-20T17:26:34.545Z,100.00
2022-11-20T17:29:24.183Z,100.00
2022-11-20T17:31:51.551Z,100.00
2022-11-20T17:34:18.629Z,100.00
2022-11-20T17:36:46.632Z,100.00
2022-11-20T17:39:15.895Z,100.00
2022-11-20T17:41:43.364Z,100.00
2022-11-20T17:44:12.202Z,100.00
2022-11-20T17:46:39.943Z,100.00
2022-11-20T17:49:07.562Z,100.00
2022-11-20T17:51:37.812Z,100.00
2022-11-20T17:54:07.523Z,100.00
2022-11-20T17:56:53.902Z,100.00
2022-11-20T17:59:21.512Z,100.00
2022-11-20T18:01:48.748Z,100.00
2022-11-20T18:04:16.850Z,100.00
2022-11-20T18:06:44.130Z,100.00
2022-11-20T18:09:12.257Z,100.00
2022-11-20T18:11:42.199Z,100.00
2022-11-20T18:14:32.048Z,100.00
2022-11-20T18:17:03.012Z,100.00
2022-11-20T18:19:33.292Z,100.00
2022-11-20T18:22:04.064Z,100.00
2022-11-20T18:24:32.588Z,100.00
2022-11-20T18:27:00.609Z,100.00
2022-11-20T18:29:28.875Z,100.00
2022-11-20T18:31:55.932Z,100.00
2022-11-20T18:34:23.532Z,100.00
2022-11-20T18:36:51.134Z,100.00
2022-11-20T18:39:18.327Z,100.00
2022-11-20T18:42:03.960Z,100.00
2022-11-20T18:44:50.938Z,100.00
2022-11-20T18:47:19.365Z,100.00
2022-11-20T18:49:52.773Z,100.00
2022-11-20T18:52:23.140Z,100.00
2022-11-20T18:54:51.094Z,100.00
2022-11-20T18:57:19.977Z,100.00
2022-11-20T18:59:47.152Z,100.00
2022-11-20T19:02:17.231Z,100.00
2022-11-20T19:04:44.450Z,100.00
2022-11-20T19:07:12.209Z,100.00
2022-11-20T19:09:44.692Z,100.00
2022-11-20T19:12:14.709Z,100.00
2022-11-20T19:14:42.022Z,100.00
2022-11-20T19:17:11.115Z,100.00
2022-11-20T19:19:38.188Z,100.00
2022-11-20T19:22:05.550Z,100.00
2022-11-20T19:24:32.583Z,100.00
2022-11-20T19:27:01.196Z,100.00
2022-11-20T19:29:29.065Z,100.00
2022-11-20T19:31:58.858Z,100.00
2022-11-20T19:34:26.125Z,100.00
2022-11-20T19:36:53.955Z,100.00
2022-11-20T19:39:21.084Z,100.00
2022-11-20T19:41:48.121Z,100.00
2022-11-20T19:44:17.937Z,100.00
2022-11-20T19:46:45.351Z,100.00
2022-11-20T19:49:14.248Z,100.00
2022-11-20T19:51:47.292Z,100.00
2022-11-20T19:54:14.955Z,100.00
2022-11-20T19:56:42.370Z,100.00
2022-11-20T19:59:09.404Z,100.00
2022-11-20T20:01:36.538Z,100.00
2022-11-20T20:04:05.543Z,100.00
2022-11-20T20:06:38.763Z,100.00
2022-11-20T20:09:08.844Z,100.00
2022-11-20T20:11:36.352Z,100.00
2022-11-20T20:14:09.953Z,100.00
2022-11-20T20:16:37.302Z,100.00
2022-11-20T20:19:05.757Z,100.00
2022-11-20T20:21:35.037Z,100.00
2022-11-20T20:24:02.646Z,100.00
2022-11-20T20:26:31.931Z,100.00
2022-11-20T20:29:01.133Z,100.00
2022-11-20T20:31:30.781Z,100.00
2022-11-20T20:33:58.118Z,100.00
2022-11-20T20:36:26.143Z,100.00
2022-11-20T20:38:59.586Z,100.00
2022-11-20T20:41:26.770Z,100.00
2022-11-20T20:44:13.203Z,100.00
2022-11-20T20:46:41.290Z,100.00
2022-11-20T20:49:09.457Z,100.00
2022-11-20T20:51:36.681Z,100.00
2022-11-20T20:54:04.408Z,100.00
2022-11-20T20:56:31.905Z,100.00
2022-11-20T20:59:00.761Z,100.00
2022-11-20T21:01:30.573Z,100.00
2022-11-20T21:03:58.354Z,100.00
2022-11-20T21:06:26.382Z,100.00
2022-11-20T21:08:53.866Z,100.00
2022-11-20T21:11:21.297Z,100.00
2022-11-20T21:13:48.956Z,100.00
2022-11-20T21:16:19.302Z,100.00
2022-11-20T21:18:47.045Z,100.00
2022-11-20T21:21:34.436Z,100.00
2022-11-20T21:24:02.424Z,100.00
2022-11-20T21:26:30.123Z,100.00
2022-11-20T21:28:57.795Z,100.00
2022-11-20T21:31:26.934Z,100.00
2022-11-20T21:33:56.181Z,100.00
2022-11-20T21:36:32.043Z,100.00
2022-11-20T21:39:00.113Z,100.00
2022-11-20T21:41:30.201Z,100.00
2022-11-20T21:44:29.509Z,100.00
2022-11-20T21:46:47.054Z,100.00
2022-11-20T21:49:15.306Z,100.00
2022-11-20T21:51:42.433Z,100.00
2022-11-20T21:54:10.728Z,100.00
2022-11-20T21:56:37.758Z,100.00
2022-11-20T21:59:04.797Z,100.00
2022-11-20T22:01:32.252Z,100.00
2022-11-20T22:04:01.827Z,100.00
2022-11-20T22:06:33.383Z,100.00
2022-11-20T22:09:02.254Z,100.00
2022-11-20T22:11:30.731Z,100.00
2022-11-20T22:14:16.564Z,100.00
2022-11-20T22:16:43.964Z,100.00
2022-11-20T22:19:11.073Z,100.00
2022-11-20T22:21:40.102Z,100.00
2022-11-20T22:24:08.500Z,100.00
2022-11-20T22:26:40.156Z,100.00
2022-11-20T22:29:11.403Z,100.00
2022-11-20T22:31:38.365Z,100.00
2022-11-20T22:34:05.375Z,100.00
2022-11-20T22:36:37.372Z,100.00
2022-11-20T22:39:05.797Z,100.00
2022-11-20T22:41:34.629Z,100.00
2022-11-20T22:44:07.655Z,100.00
2022-11-20T22:46:36.594Z,100.00
2022-11-20T22:49:11.040Z,100.00
2022-11-20T22:51:40.216Z,100.00
2022-11-20T22:54:07.957Z,100.00
2022-11-20T22:56:35.176Z,100.00
2022-11-20T22:59:02.485Z,100.00
2022-11-20T23:01:32.743Z,100.00
2022-11-20T23:04:05.231Z,100.00
2022-11-20T23:06:35.834Z,100.00
2022-11-20T23:09:05.481Z,100.00
2022-11-20T23:11:33.365Z,100.00
2022-11-20T23:14:03.055Z,100.00
2022-11-20T23:16:31.347Z,100.00
2022-11-20T23:19:07.070Z,100.00
2022-11-20T23:21:35.815Z,100.00
2022-11-20T23:24:03.826Z,100.00
2022-11-20T23:26:34.653Z,100.00
2022-11-20T23:29:01.875Z,100.00
2022-11-20T23:31:31.072Z,100.00
2022-11-20T23:33:59.018Z,100.00
2022-11-20T23:36:26.736Z,100.00
2022-11-20T23:38:54.041Z,100.00
2022-11-20T23:41:21.080Z,100.00
2022-11-20T23:43:48.111Z,100.00
2022-11-20T23:46:16.990Z,100.00
2022-11-20T23:48:45.453Z,100.00
2022-11-20T23:51:13.427Z,100.00
2022-11-20T23:53:40.927Z,100.00
2022-11-20T23:56:08.305Z,100.00
2022-11-20T23:58:37.308Z,100.00
